sensor_id;sensor_type;location;lat;lon;timestamp;pressure;altitude;pressure_sealevel;temperature;humidity
11542;BME280;5827;49.482;7.716;2023-02-17T00:00:41;99597.03;;;11.14;84.36
11542;BME280;5827;49.482;7.716;2023-02-17T00:02:42;99591.78;;;11.19;84.28
11542;BME280;5827;49.482;7.716;2023-02-17T00:04:44;99598.78;;;11.20;84.22
11542;BME280;5827;49.482;7.716;2023-02-17T00:06:46;99588.44;;;11.24;84.12
11542;BME280;5827;49.482;7.716;2023-02-17T00:08:48;99596.91;;;11.21;84.95
11542;BME280;5827;49.482;7.716;2023-02-17T00:10:57;99595.72;;;11.17;85.24
11542;BME280;5827;49.482;7.716;2023-02-17T00:13:00;99605.09;;;11.26;84.71
11542;BME280;5827;49.482;7.716;2023-02-17T00:15:01;99608.75;;;11.32;83.97
11542;BME280;5827;49.482;7.716;2023-02-17T00:17:03;99609.56;;;11.32;83.86
11542;BME280;5827;49.482;7.716;2023-02-17T00:19:04;99604.41;;;11.31;83.87
11542;BME280;5827;49.482;7.716;2023-02-17T00:21:24;99607.91;;;11.31;83.76
11542;BME280;5827;49.482;7.716;2023-02-17T00:23:26;99598.06;;;11.43;82.83
11542;BME280;5827;49.482;7.716;2023-02-17T00:25:27;99599.00;;;11.49;82.11
11542;BME280;5827;49.482;7.716;2023-02-17T00:27:29;99597.47;;;11.41;82.86
11542;BME280;5827;49.482;7.716;2023-02-17T00:29:32;99596.44;;;11.42;82.67
11542;BME280;5827;49.482;7.716;2023-02-17T00:31:34;99586.75;;;11.41;82.76
11542;BME280;5827;49.482;7.716;2023-02-17T00:33:36;99595.06;;;11.52;83.72
11542;BME280;5827;49.482;7.716;2023-02-17T00:35:39;99588.88;;;11.51;84.11
11542;BME280;5827;49.482;7.716;2023-02-17T00:37:40;99577.19;;;11.45;85.22
11542;BME280;5827;49.482;7.716;2023-02-17T00:39:44;99577.22;;;11.57;84.20
11542;BME280;5827;49.482;7.716;2023-02-17T00:41:46;99574.28;;;11.47;84.69
11542;BME280;5827;49.482;7.716;2023-02-17T00:43:47;99571.13;;;11.50;84.19
11542;BME280;5827;49.482;7.716;2023-02-17T00:45:50;99577.09;;;11.52;84.03
11542;BME280;5827;49.482;7.716;2023-02-17T00:47:52;99580.81;;;11.51;83.98
11542;BME280;5827;49.482;7.716;2023-02-17T00:49:53;99563.91;;;11.51;84.61
11542;BME280;5827;49.482;7.716;2023-02-17T00:51:58;99571.47;;;11.54;84.72
11542;BME280;5827;49.482;7.716;2023-02-17T00:53:59;99575.91;;;11.48;84.53
11542;BME280;5827;49.482;7.716;2023-02-17T00:56:01;99576.97;;;11.47;85.24
11542;BME280;5827;49.482;7.716;2023-02-17T00:58:02;99583.94;;;11.48;85.15
11542;BME280;5827;49.482;7.716;2023-02-17T01:00:05;99574.72;;;11.44;85.08
11542;BME280;5827;49.482;7.716;2023-02-17T01:02:08;99572.84;;;11.44;85.86
11542;BME280;5827;49.482;7.716;2023-02-17T01:04:09;99578.91;;;11.40;86.05
11542;BME280;5827;49.482;7.716;2023-02-17T01:06:17;99574.03;;;11.49;85.71
11542;BME280;5827;49.482;7.716;2023-02-17T01:08:22;99574.59;;;11.39;86.35
11542;BME280;5827;49.482;7.716;2023-02-17T01:10:24;99578.47;;;11.43;86.34
11542;BME280;5827;49.482;7.716;2023-02-17T01:12:26;99588.50;;;11.48;86.31
11542;BME280;5827;49.482;7.716;2023-02-17T01:14:27;99583.00;;;11.42;86.53
11542;BME280;5827;49.482;7.716;2023-02-17T01:16:30;99585.88;;;11.29;86.60
11542;BME280;5827;49.482;7.716;2023-02-17T01:18:35;99576.22;;;11.40;87.18
11542;BME280;5827;49.482;7.716;2023-02-17T01:20:37;99578.47;;;11.43;86.63
11542;BME280;5827;49.482;7.716;2023-02-17T01:22:39;99580.06;;;11.32;87.42
11542;BME280;5827;49.482;7.716;2023-02-17T01:24:41;99580.19;;;11.37;86.62
11542;BME280;5827;49.482;7.716;2023-02-17T01:26:42;99588.00;;;11.39;87.33
11542;BME280;5827;49.482;7.716;2023-02-17T01:28:44;99586.63;;;11.48;86.70
11542;BME280;5827;49.482;7.716;2023-02-17T01:30:47;99582.63;;;11.39;86.84
11542;BME280;5827;49.482;7.716;2023-02-17T01:32:48;99580.69;;;11.46;87.33
11542;BME280;5827;49.482;7.716;2023-02-17T01:34:51;99576.47;;;11.38;87.75
11542;BME280;5827;49.482;7.716;2023-02-17T01:36:52;99585.09;;;11.40;88.28
11542;BME280;5827;49.482;7.716;2023-02-17T01:38:54;99578.19;;;11.33;88.09
11542;BME280;5827;49.482;7.716;2023-02-17T01:40:56;99588.13;;;11.44;88.58
11542;BME280;5827;49.482;7.716;2023-02-17T01:42:58;99586.63;;;11.48;88.53
11542;BME280;5827;49.482;7.716;2023-02-17T01:45:31;99582.69;;;11.51;88.35
11542;BME280;5827;49.482;7.716;2023-02-17T01:47:33;99573.66;;;11.45;88.00
11542;BME280;5827;49.482;7.716;2023-02-17T01:49:37;99578.31;;;11.38;88.60
11542;BME280;5827;49.482;7.716;2023-02-17T01:51:41;99573.88;;;11.32;89.45
11542;BME280;5827;49.482;7.716;2023-02-17T01:53:47;99563.41;;;11.42;89.86
11542;BME280;5827;49.482;7.716;2023-02-17T01:55:51;99554.94;;;11.27;90.89
11542;BME280;5827;49.482;7.716;2023-02-17T01:57:58;99562.69;;;11.35;90.99
11542;BME280;5827;49.482;7.716;2023-02-17T02:00:03;99562.09;;;11.33;92.47
11542;BME280;5827;49.482;7.716;2023-02-17T02:02:05;99550.31;;;11.34;92.72
11542;BME280;5827;49.482;7.716;2023-02-17T02:04:07;99552.50;;;11.25;93.02
11542;BME280;5827;49.482;7.716;2023-02-17T02:06:12;99537.91;;;11.21;95.31
11542;BME280;5827;49.482;7.716;2023-02-17T02:08:18;99537.09;;;11.20;95.13
11542;BME280;5827;49.482;7.716;2023-02-17T02:10:19;99543.19;;;11.28;95.41
11542;BME280;5827;49.482;7.716;2023-02-17T02:12:24;99541.53;;;11.27;95.05
11542;BME280;5827;49.482;7.716;2023-02-17T02:14:26;99543.28;;;11.21;95.79
11542;BME280;5827;49.482;7.716;2023-02-17T02:16:33;99539.31;;;11.24;96.14
11542;BME280;5827;49.482;7.716;2023-02-17T02:18:45;99545.00;;;11.15;96.03
11542;BME280;5827;49.482;7.716;2023-02-17T02:21:06;99538.59;;;11.16;96.58
11542;BME280;5827;49.482;7.716;2023-02-17T02:23:53;99530.66;;;11.10;96.91
11542;BME280;5827;49.482;7.716;2023-02-17T02:28:33;99521.59;;;10.92;99.89
11542;BME280;5827;49.482;7.716;2023-02-17T02:31:05;99522.09;;;11.01;100.00
11542;BME280;5827;49.482;7.716;2023-02-17T02:33:15;99519.78;;;11.05;100.00
11542;BME280;5827;49.482;7.716;2023-02-17T02:35:21;99514.25;;;10.88;100.00
11542;BME280;5827;49.482;7.716;2023-02-17T02:37:30;99516.59;;;10.96;100.00
11542;BME280;5827;49.482;7.716;2023-02-17T02:39:37;99510.78;;;10.99;100.00
11542;BME280;5827;49.482;7.716;2023-02-17T02:41:43;99512.44;;;11.00;100.00
11542;BME280;5827;49.482;7.716;2023-02-17T02:43:47;99504.16;;;11.02;100.00
11542;BME280;5827;49.482;7.716;2023-02-17T02:45:49;99505.06;;;10.96;100.00
11542;BME280;5827;49.482;7.716;2023-02-17T02:47:52;99497.47;;;10.92;100.00
11542;BME280;5827;49.482;7.716;2023-02-17T02:49:55;99488.09;;;10.83;100.00
11542;BME280;5827;49.482;7.716;2023-02-17T02:52:04;99488.03;;;10.72;100.00
11542;BME280;5827;49.482;7.716;2023-02-17T02:54:16;99486.91;;;10.79;100.00
11542;BME280;5827;49.482;7.716;2023-02-17T02:56:26;99482.84;;;10.77;100.00
11542;BME280;5827;49.482;7.716;2023-02-17T02:58:37;99486.47;;;10.82;100.00
11542;BME280;5827;49.482;7.716;2023-02-17T03:00:50;99482.44;;;10.91;100.00
11542;BME280;5827;49.482;7.716;2023-02-17T03:02:57;99484.00;;;10.81;100.00
11542;BME280;5827;49.482;7.716;2023-02-17T03:05:06;99481.06;;;10.71;100.00
11542;BME280;5827;49.482;7.716;2023-02-17T03:07:15;99487.97;;;10.78;100.00
11542;BME280;5827;49.482;7.716;2023-02-17T03:09:24;99477.44;;;10.65;100.00
11542;BME280;5827;49.482;7.716;2023-02-17T03:11:26;99479.56;;;10.75;100.00
11542;BME280;5827;49.482;7.716;2023-02-17T03:13:33;99484.47;;;10.78;100.00
11542;BME280;5827;49.482;7.716;2023-02-17T03:15:38;99473.19;;;10.57;100.00
11542;BME280;5827;49.482;7.716;2023-02-17T03:17:40;99471.53;;;10.75;100.00
11542;BME280;5827;49.482;7.716;2023-02-17T03:19:41;99473.06;;;10.82;100.00
11542;BME280;5827;49.482;7.716;2023-02-17T03:21:49;99464.53;;;10.74;100.00
11542;BME280;5827;49.482;7.716;2023-02-17T03:23:51;99467.91;;;10.81;100.00
11542;BME280;5827;49.482;7.716;2023-02-17T03:25:53;99465.41;;;10.86;100.00
11542;BME280;5827;49.482;7.716;2023-02-17T03:27:54;99459.44;;;10.84;100.00
11542;BME280;5827;49.482;7.716;2023-02-17T03:29:56;99457.56;;;10.84;100.00
11542;BME280;5827;49.482;7.716;2023-02-17T03:31:57;99465.41;;;10.86;100.00
11542;BME280;5827;49.482;7.716;2023-02-17T03:33:59;99458.75;;;10.88;100.00
11542;BME280;5827;49.482;7.716;2023-02-17T03:36:01;99455.41;;;10.63;100.00
11542;BME280;5827;49.482;7.716;2023-02-17T03:38:04;99462.97;;;10.66;100.00
11542;BME280;5827;49.482;7.716;2023-02-17T03:40:07;99455.78;;;10.48;100.00
11542;BME280;5827;49.482;7.716;2023-02-17T03:42:09;99450.75;;;10.70;100.00
11542;BME280;5827;49.482;7.716;2023-02-17T03:44:10;99459.91;;;10.62;100.00
11542;BME280;5827;49.482;7.716;2023-02-17T03:46:13;99455.97;;;10.65;100.00
11542;BME280;5827;49.482;7.716;2023-02-17T03:48:15;99452.63;;;10.69;100.00
11542;BME280;5827;49.482;7.716;2023-02-17T03:50:17;99453.69;;;10.68;100.00
11542;BME280;5827;49.482;7.716;2023-02-17T03:52:18;99451.00;;;10.68;100.00
11542;BME280;5827;49.482;7.716;2023-02-17T03:54:21;99451.06;;;10.62;100.00
11542;BME280;5827;49.482;7.716;2023-02-17T03:56:23;99457.09;;;10.57;100.00
11542;BME280;5827;49.482;7.716;2023-02-17T03:58:24;99455.22;;;10.46;100.00
11542;BME280;5827;49.482;7.716;2023-02-17T04:00:26;99461.88;;;10.55;100.00
11542;BME280;5827;49.482;7.716;2023-02-17T04:02:27;99455.72;;;10.55;100.00
11542;BME280;5827;49.482;7.716;2023-02-17T04:04:29;99459.91;;;10.62;100.00
11542;BME280;5827;49.482;7.716;2023-02-17T04:06:30;99459.22;;;10.55;100.00
11542;BME280;5827;49.482;7.716;2023-02-17T04:08:32;99453.25;;;10.53;100.00
11542;BME280;5827;49.482;7.716;2023-02-17T04:10:35;99470.00;;;10.49;100.00
11542;BME280;5827;49.482;7.716;2023-02-17T04:12:36;99459.38;;;10.42;100.00
11542;BME280;5827;49.482;7.716;2023-02-17T04:14:38;99457.75;;;10.41;100.00
11542;BME280;5827;49.482;7.716;2023-02-17T04:16:39;99466.63;;;10.53;100.00
11542;BME280;5827;49.482;7.716;2023-02-17T04:18:41;99465.97;;;10.39;100.00
11542;BME280;5827;49.482;7.716;2023-02-17T04:20:43;99463.78;;;10.36;100.00
11542;BME280;5827;49.482;7.716;2023-02-17T04:22:45;99458.75;;;10.40;100.00
11542;BME280;5827;49.482;7.716;2023-02-17T04:24:46;99455.50;;;10.38;100.00
11542;BME280;5827;49.482;7.716;2023-02-17T04:26:49;99467.28;;;10.37;100.00
11542;BME280;5827;49.482;7.716;2023-02-17T04:28:51;99490.97;;;13.33;100.00
11542;BME280;5827;49.482;7.716;2023-02-17T04:30:52;99496.25;;;13.45;100.00
11542;BME280;5827;49.482;7.716;2023-02-17T04:32:53;99494.88;;;13.14;100.00
11542;BME280;5827;49.482;7.716;2023-02-17T04:34:55;99507.25;;;14.71;96.52
11542;BME280;5827;49.482;7.716;2023-02-17T04:36:57;99483.28;;;12.68;100.00
11542;BME280;5827;49.482;7.716;2023-02-17T04:38:59;99486.47;;;13.39;100.00
11542;BME280;5827;49.482;7.716;2023-02-17T04:41:00;99482.03;;;12.59;100.00
11542;BME280;5827;49.482;7.716;2023-02-17T04:43:03;99475.41;;;12.78;100.00
11542;BME280;5827;49.482;7.716;2023-02-17T04:45:06;99472.88;;;12.71;100.00
11542;BME280;5827;49.482;7.716;2023-02-17T04:47:07;99475.75;;;12.82;100.00
11542;BME280;5827;49.482;7.716;2023-02-17T04:49:09;99466.81;;;12.24;100.00
11542;BME280;5827;49.482;7.716;2023-02-17T04:51:10;99468.81;;;12.86;100.00
11542;BME280;5827;49.482;7.716;2023-02-17T04:53:12;99486.13;;;13.69;100.00
11542;BME280;5827;49.482;7.716;2023-02-17T04:55:14;99471.84;;;12.09;100.00
11542;BME280;5827;49.482;7.716;2023-02-17T04:57:16;99494.28;;;14.08;98.97
11542;BME280;5827;49.482;7.716;2023-02-17T04:59:19;99492.66;;;14.29;96.18
11542;BME280;5827;49.482;7.716;2023-02-17T05:01:20;99493.94;;;14.04;95.68
11542;BME280;5827;49.482;7.716;2023-02-17T05:03:21;99477.75;;;14.21;95.82
11542;BME280;5827;49.482;7.716;2023-02-17T05:05:23;99479.81;;;13.97;97.20
11542;BME280;5827;49.482;7.716;2023-02-17T05:07:25;99488.47;;;13.99;96.86
11542;BME280;5827;49.482;7.716;2023-02-17T05:09:26;99480.34;;;13.77;97.17
11542;BME280;5827;49.482;7.716;2023-02-17T05:11:28;99480.34;;;13.60;99.08
11542;BME280;5827;49.482;7.716;2023-02-17T05:13:30;99474.41;;;13.41;99.27
11542;BME280;5827;49.482;7.716;2023-02-17T05:15:34;99486.47;;;13.39;99.57
11542;BME280;5827;49.482;7.716;2023-02-17T05:17:36;99495.38;;;13.39;100.00
11542;BME280;5827;49.482;7.716;2023-02-17T05:19:37;99486.47;;;13.39;100.00
11542;BME280;5827;49.482;7.716;2023-02-17T05:21:39;99494.06;;;13.25;100.00
11542;BME280;5827;49.482;7.716;2023-02-17T05:23:40;99494.91;;;13.42;100.00
11542;BME280;5827;49.482;7.716;2023-02-17T05:25:42;99490.13;;;13.04;100.00
11542;BME280;5827;49.482;7.716;2023-02-17T05:27:43;99476.44;;;12.49;100.00
11542;BME280;5827;49.482;7.716;2023-02-17T05:29:45;99476.50;;;12.25;100.00
11542;BME280;5827;49.482;7.716;2023-02-17T05:31:48;99482.53;;;12.44;100.00
11542;BME280;5827;49.482;7.716;2023-02-17T05:33:49;99479.50;;;12.40;100.00
11542;BME280;5827;49.482;7.716;2023-02-17T05:35:51;99477.69;;;12.17;100.00
11542;BME280;5827;49.482;7.716;2023-02-17T05:37:52;99476.47;;;12.37;100.00
11542;BME280;5827;49.482;7.716;2023-02-17T05:39:54;99471.63;;;11.75;100.00
11542;BME280;5827;49.482;7.716;2023-02-17T05:41:55;99482.69;;;12.26;100.00
11542;BME280;5827;49.482;7.716;2023-02-17T05:43:57;99474.22;;;12.05;100.00
11542;BME280;5827;49.482;7.716;2023-02-17T05:46:00;99480.75;;;12.90;100.00
11542;BME280;5827;49.482;7.716;2023-02-17T05:48:03;99483.84;;;12.30;100.00
11542;BME280;5827;49.482;7.716;2023-02-17T05:50:06;99485.75;;;12.69;100.00
11542;BME280;5827;49.482;7.716;2023-02-17T05:52:08;99503.88;;;12.51;100.00
11542;BME280;5827;49.482;7.716;2023-02-17T05:54:09;99487.53;;;12.52;100.00
11542;BME280;5827;49.482;7.716;2023-02-17T05:56:11;99496.44;;;12.53;100.00
11542;BME280;5827;49.482;7.716;2023-02-17T05:58:12;99502.50;;;12.48;100.00
11542;BME280;5827;49.482;7.716;2023-02-17T06:00:14;99509.41;;;12.56;100.00
11542;BME280;5827;49.482;7.716;2023-02-17T06:02:16;99501.03;;;12.29;100.00
11542;BME280;5827;49.482;7.716;2023-02-17T06:04:19;99499.03;;;12.36;100.00
11542;BME280;5827;49.482;7.716;2023-02-17T06:06:20;99500.09;;;12.23;100.00
11542;BME280;5827;49.482;7.716;2023-02-17T06:08:22;99508.44;;;12.62;100.00
11542;BME280;5827;49.482;7.716;2023-02-17T06:10:23;99510.16;;;12.68;100.00
11542;BME280;5827;49.482;7.716;2023-02-17T06:12:25;99508.13;;;12.46;100.00
11542;BME280;5827;49.482;7.716;2023-02-17T06:14:26;99514.09;;;12.37;100.00
11542;BME280;5827;49.482;7.716;2023-02-17T06:16:28;99512.19;;;12.61;100.00
11542;BME280;5827;49.482;7.716;2023-02-17T06:18:29;99508.75;;;12.25;100.00
11542;BME280;5827;49.482;7.716;2023-02-17T06:20:32;99508.16;;;12.23;100.00
11542;BME280;5827;49.482;7.716;2023-02-17T06:22:34;99512.31;;;12.54;100.00
11542;BME280;5827;49.482;7.716;2023-02-17T06:24:35;99519.09;;;12.45;100.00
11542;BME280;5827;49.482;7.716;2023-02-17T06:26:37;99513.38;;;12.41;100.00
11542;BME280;5827;49.482;7.716;2023-02-17T06:28:38;99512.84;;;12.16;100.00
11542;BME280;5827;49.482;7.716;2023-02-17T06:30:40;99508.84;;;12.30;100.00
11542;BME280;5827;49.482;7.716;2023-02-17T06:32:41;99511.19;;;12.38;100.00
11542;BME280;5827;49.482;7.716;2023-02-17T06:34:43;99504.88;;;12.33;100.00
11542;BME280;5827;49.482;7.716;2023-02-17T06:36:46;99511.28;;;12.32;100.00
11542;BME280;5827;49.482;7.716;2023-02-17T06:38:47;99525.94;;;12.64;100.00
11542;BME280;5827;49.482;7.716;2023-02-17T06:40:49;99516.94;;;12.70;100.00
11542;BME280;5827;49.482;7.716;2023-02-17T06:42:50;99515.16;;;13.05;100.00
11542;BME280;5827;49.482;7.716;2023-02-17T06:44:51;99516.69;;;13.01;100.00
11542;BME280;5827;49.482;7.716;2023-02-17T06:46:53;99526.94;;;13.15;100.00
11542;BME280;5827;49.482;7.716;2023-02-17T06:48:54;99528.19;;;12.96;100.00
11542;BME280;5827;49.482;7.716;2023-02-17T06:50:56;99530.88;;;12.96;100.00
11542;BME280;5827;49.482;7.716;2023-02-17T06:52:59;99532.47;;;13.09;100.00
11542;BME280;5827;49.482;7.716;2023-02-17T06:55:00;99537.66;;;12.98;100.00
11542;BME280;5827;49.482;7.716;2023-02-17T06:57:02;99541.63;;;12.96;100.00
11542;BME280;5827;49.482;7.716;2023-02-17T06:59:03;99543.16;;;13.32;100.00
11542;BME280;5827;49.482;7.716;2023-02-17T07:01:05;99534.59;;;13.07;100.00
11542;BME280;5827;49.482;7.716;2023-02-17T07:03:07;99542.88;;;13.05;100.00
11542;BME280;5827;49.482;7.716;2023-02-17T07:05:09;99544.66;;;12.59;100.00
11542;BME280;5827;49.482;7.716;2023-02-17T07:07:11;99554.94;;;12.62;100.00
11542;BME280;5827;49.482;7.716;2023-02-17T07:09:13;99561.59;;;12.60;100.00
11542;BME280;5827;49.482;7.716;2023-02-17T07:11:15;99555.75;;;12.75;100.00
11542;BME280;5827;49.482;7.716;2023-02-17T07:13:17;99571.78;;;12.69;100.00
11542;BME280;5827;49.482;7.716;2023-02-17T07:15:19;99574.41;;;12.93;100.00
11542;BME280;5827;49.482;7.716;2023-02-17T07:17:20;99572.63;;;13.39;100.00
11542;BME280;5827;49.482;7.716;2023-02-17T07:19:22;99550.69;;;12.78;100.00
11542;BME280;5827;49.482;7.716;2023-02-17T07:21:23;99567.09;;;13.05;100.00
11542;BME280;5827;49.482;7.716;2023-02-17T07:23:25;99558.28;;;12.93;100.00
11542;BME280;5827;49.482;7.716;2023-02-17T07:25:28;99553.50;;;12.83;100.00
11542;BME280;5827;49.482;7.716;2023-02-17T07:27:30;99557.88;;;13.01;100.00
11542;BME280;5827;49.482;7.716;2023-02-17T07:29:31;99537.38;;;12.83;100.00
11542;BME280;5827;49.482;7.716;2023-02-17T07:31:34;99559.13;;;13.22;100.00
11542;BME280;5827;49.482;7.716;2023-02-17T07:33:36;99550.13;;;13.05;100.00
11542;BME280;5827;49.482;7.716;2023-02-17T07:35:39;99559.03;;;13.05;100.00
11542;BME280;5827;49.482;7.716;2023-02-17T07:37:43;99562.25;;;12.90;100.00
11542;BME280;5827;49.482;7.716;2023-02-17T07:39:44;99567.59;;;13.02;100.00
11542;BME280;5827;49.482;7.716;2023-02-17T07:41:47;99554.50;;;13.06;100.00
11542;BME280;5827;49.482;7.716;2023-02-17T07:43:48;99563.31;;;12.89;100.00
11542;BME280;5827;49.482;7.716;2023-02-17T07:45:53;99546.94;;;12.39;100.00
11542;BME280;5827;49.482;7.716;2023-02-17T07:47:55;99545.47;;;12.60;100.00
11542;BME280;5827;49.482;7.716;2023-02-17T07:49:56;99554.50;;;12.65;100.00
11542;BME280;5827;49.482;7.716;2023-02-17T07:51:58;99563.06;;;12.91;100.00
11542;BME280;5827;49.482;7.716;2023-02-17T07:54:00;99567.97;;;12.94;100.00
11542;BME280;5827;49.482;7.716;2023-02-17T07:56:02;99556.78;;;12.73;100.00
11542;BME280;5827;49.482;7.716;2023-02-17T07:58:05;99542.47;;;12.44;100.00
11542;BME280;5827;49.482;7.716;2023-02-17T08:00:08;99537.25;;;12.26;100.00
11542;BME280;5827;49.482;7.716;2023-02-17T08:02:10;99541.69;;;13.41;100.00
11542;BME280;5827;49.482;7.716;2023-02-17T08:04:11;99540.44;;;13.04;100.00
11542;BME280;5827;49.482;7.716;2023-02-17T08:06:14;99528.63;;;12.64;100.00
11542;BME280;5827;49.482;7.716;2023-02-17T08:08:16;99527.50;;;13.17;100.00
11542;BME280;5827;49.482;7.716;2023-02-17T08:10:36;99537.78;;;13.49;100.00
11542;BME280;5827;49.482;7.716;2023-02-17T08:12:55;99551.19;;;13.61;100.00
11542;BME280;5827;49.482;7.716;2023-02-17T08:15:24;99547.66;;;13.15;100.00
11542;BME280;5827;49.482;7.716;2023-02-17T08:17:25;99574.41;;;13.33;100.00
11542;BME280;5827;49.482;7.716;2023-02-17T08:19:27;99570.56;;;13.46;100.00
11542;BME280;5827;49.482;7.716;2023-02-17T08:21:28;99582.16;;;13.46;100.00
11542;BME280;5827;49.482;7.716;2023-02-17T08:23:30;99590.44;;;13.73;100.00
11542;BME280;5827;49.482;7.716;2023-02-17T08:25:32;99584.88;;;13.63;100.00
11542;BME280;5827;49.482;7.716;2023-02-17T08:27:34;99585.13;;;13.79;100.00
11542;BME280;5827;49.482;7.716;2023-02-17T08:29:35;99577.56;;;13.76;100.00
11542;BME280;5827;49.482;7.716;2023-02-17T08:31:38;99570.34;;;13.64;100.00
11542;BME280;5827;49.482;7.716;2023-02-17T08:33:39;99571.03;;;13.71;100.00
11542;BME280;5827;49.482;7.716;2023-02-17T08:35:41;99586.44;;;13.76;100.00
11542;BME280;5827;49.482;7.716;2023-02-17T08:37:42;99581.97;;;13.82;100.00
11542;BME280;5827;49.482;7.716;2023-02-17T08:39:44;99585.00;;;14.02;100.00
11542;BME280;5827;49.482;7.716;2023-02-17T08:41:45;99578.50;;;13.69;100.00
11542;BME280;5827;49.482;7.716;2023-02-17T08:43:47;99597.19;;;13.59;100.00
11542;BME280;5827;49.482;7.716;2023-02-17T08:45:49;99574.50;;;13.55;100.00
11542;BME280;5827;49.482;7.716;2023-02-17T08:47:52;99597.38;;;13.86;100.00
11542;BME280;5827;49.482;7.716;2023-02-17T08:49:53;99592.78;;;13.53;100.00
11542;BME280;5827;49.482;7.716;2023-02-17T08:51:55;99591.59;;;13.61;100.00
11542;BME280;5827;49.482;7.716;2023-02-17T08:53:58;99591.09;;;13.81;100.00
11542;BME280;5827;49.482;7.716;2023-02-17T08:56:00;99586.78;;;13.80;100.00
11542;BME280;5827;49.482;7.716;2023-02-17T08:58:02;99599.59;;;13.72;100.00
11542;BME280;5827;49.482;7.716;2023-02-17T09:00:04;99589.63;;;13.56;100.00
11542;BME280;5827;49.482;7.716;2023-02-17T09:02:06;99599.00;;;13.54;100.00
11542;BME280;5827;49.482;7.716;2023-02-17T09:04:13;99594.69;;;13.69;100.00
11542;BME280;5827;49.482;7.716;2023-02-17T09:06:15;99596.13;;;13.60;100.00
11542;BME280;5827;49.482;7.716;2023-02-17T09:08:16;99599.44;;;13.34;100.00
11542;BME280;5827;49.482;7.716;2023-02-17T09:10:18;99596.94;;;13.44;100.00
11542;BME280;5827;49.482;7.716;2023-02-17T09:12:19;99598.44;;;13.52;100.00
11542;BME280;5827;49.482;7.716;2023-02-17T09:14:21;99596.03;;;12.98;100.00
11542;BME280;5827;49.482;7.716;2023-02-17T09:16:23;99610.78;;;13.36;100.00
11542;BME280;5827;49.482;7.716;2023-02-17T09:18:25;99602.97;;;13.22;100.00
11542;BME280;5827;49.482;7.716;2023-02-17T09:20:28;99600.97;;;13.30;100.00
11542;BME280;5827;49.482;7.716;2023-02-17T09:22:30;99616.91;;;13.93;100.00
11542;BME280;5827;49.482;7.716;2023-02-17T09:24:32;99600.53;;;13.50;100.00
11542;BME280;5827;49.482;7.716;2023-02-17T09:26:36;99609.31;;;14.07;100.00
11542;BME280;5827;49.482;7.716;2023-02-17T09:28:37;99603.53;;;13.98;100.00
11542;BME280;5827;49.482;7.716;2023-02-17T09:30:39;99598.59;;;13.62;100.00
11542;BME280;5827;49.482;7.716;2023-02-17T09:32:41;99591.97;;;13.69;100.00
11542;BME280;5827;49.482;7.716;2023-02-17T09:34:43;99612.97;;;14.01;100.00
11542;BME280;5827;49.482;7.716;2023-02-17T09:36:51;99606.97;;;13.94;100.00
11542;BME280;5827;49.482;7.716;2023-02-17T09:38:53;99598.94;;;13.99;100.00
11542;BME280;5827;49.482;7.716;2023-02-17T09:40:59;99598.44;;;13.68;100.00
11542;BME280;5827;49.482;7.716;2023-02-17T09:43:04;99599.94;;;13.93;100.00
11542;BME280;5827;49.482;7.716;2023-02-17T09:45:12;99598.72;;;13.84;100.00
11542;BME280;5827;49.482;7.716;2023-02-17T09:47:17;99601.47;;;13.72;100.00
11542;BME280;5827;49.482;7.716;2023-02-17T09:49:24;99596.91;;;13.89;100.00
11542;BME280;5827;49.482;7.716;2023-02-17T09:51:28;99591.16;;;13.52;100.00
11542;BME280;5827;49.482;7.716;2023-02-17T09:53:39;99601.22;;;13.90;100.00
11542;BME280;5827;49.482;7.716;2023-02-17T09:55:44;99612.69;;;13.97;100.00
11542;BME280;5827;49.482;7.716;2023-02-17T09:57:50;99604.56;;;13.81;100.00
11542;BME280;5827;49.482;7.716;2023-02-17T09:59:54;99619.13;;;13.80;100.00
11542;BME280;5827;49.482;7.716;2023-02-17T10:01:59;99624.09;;;14.21;100.00
11542;BME280;5827;49.482;7.716;2023-02-17T10:04:04;99626.22;;;14.36;99.38
11542;BME280;5827;49.482;7.716;2023-02-17T10:06:12;99621.72;;;14.08;99.77
11542;BME280;5827;49.482;7.716;2023-02-17T10:08:16;99611.94;;;13.85;100.00
11542;BME280;5827;49.482;7.716;2023-02-17T10:10:24;99625.16;;;13.87;100.00
11542;BME280;5827;49.482;7.716;2023-02-17T10:12:31;99628.50;;;13.94;100.00
11542;BME280;5827;49.482;7.716;2023-02-17T10:14:41;99633.53;;;13.73;100.00
11542;BME280;5827;49.482;7.716;2023-02-17T10:16:48;99625.28;;;13.63;100.00
11542;BME280;5827;49.482;7.716;2023-02-17T10:18:53;99633.41;;;13.80;100.00
11542;BME280;5827;49.482;7.716;2023-02-17T10:21:00;99638.63;;;13.87;100.00
11542;BME280;5827;49.482;7.716;2023-02-17T10:23:08;99645.81;;;13.98;100.00
11542;BME280;5827;49.482;7.716;2023-02-17T10:25:14;99642.72;;;13.89;100.00
11542;BME280;5827;49.482;7.716;2023-02-17T10:27:24;99644.19;;;14.14;100.00
11542;BME280;5827;49.482;7.716;2023-02-17T10:29:38;99638.53;;;14.15;100.00
11542;BME280;5827;49.482;7.716;2023-02-17T10:31:43;99640.16;;;13.83;100.00
11542;BME280;5827;49.482;7.716;2023-02-17T10:33:51;99647.94;;;13.79;100.00
11542;BME280;5827;49.482;7.716;2023-02-17T10:35:59;99638.06;;;14.18;100.00
11542;BME280;5827;49.482;7.716;2023-02-17T10:38:14;99641.41;;;14.09;100.00
11542;BME280;5827;49.482;7.716;2023-02-17T10:40:19;99632.56;;;13.96;100.00
11542;BME280;5827;49.482;7.716;2023-02-17T10:42:26;99631.75;;;13.96;100.00
11542;BME280;5827;49.482;7.716;2023-02-17T10:44:30;99627.88;;;14.20;100.00
11542;BME280;5827;49.482;7.716;2023-02-17T10:46:34;99614.63;;;13.85;100.00
11542;BME280;5827;49.482;7.716;2023-02-17T10:48:37;99629.66;;;13.98;100.00
11542;BME280;5827;49.482;7.716;2023-02-17T10:50:40;99626.69;;;14.33;100.00
11542;BME280;5827;49.482;7.716;2023-02-17T10:52:42;99640.69;;;14.30;100.00
11542;BME280;5827;49.482;7.716;2023-02-17T10:54:47;99638.53;;;14.15;100.00
11542;BME280;5827;49.482;7.716;2023-02-17T10:56:53;99641.50;;;14.31;100.00
11542;BME280;5827;49.482;7.716;2023-02-17T10:59:01;99642.47;;;14.41;100.00